Fort Reliance, Canada
Current Conditions -  °F | °C
As of 8:00 PM on Monday 20 Oct 2014 (Local Time) from CYZF Reporting Station
Haze Haze  
Wind Chill: 35°   Ceiling: 200
Heat Index: 39°   Visibility: 3mi
Dew Point: 39°   Wind: 6mph
Humidity: 100%   Direction: 230°SW
Pressure: 29.34"   Gusts: NA
Location:  62.71°N, 109.15°W
Report Text: CYZF 210200Z 23005KT 190V260 3SM BR OVC002 04/04 A2934 RMK SC8 OBS TAKEN +07 SLP946
Loading
Personal Weather Stations






























Interactive Weather Map
Tropical Storm Tracking
New forecast layout! Learn more

10-Day Weather Forecast

Advertisements
Track Severe Weather on mobile